createdAt,value
2019-03-24T00:00:08.657Z,11.47
2019-03-24T00:05:20.692Z,14.63
2019-03-24T00:10:26.950Z,12.27
2019-03-24T00:15:30.239Z,13.90
2019-03-24T00:20:35.518Z,13.27
2019-03-24T00:25:40.756Z,15.40
2019-03-24T00:30:44.426Z,14.83
2019-03-24T00:35:47.783Z,16.23
2019-03-24T00:40:51.054Z,17.23
2019-03-24T00:45:56.754Z,17.07
2019-03-24T00:51:05.291Z,18.70
2019-03-24T00:56:08.824Z,20.27
2019-03-24T01:01:12.350Z,18.50
2019-03-24T01:06:15.633Z,18.03
2019-03-24T01:11:18.921Z,18.00
2019-03-24T01:16:22.201Z,17.23
2019-03-24T01:21:25.729Z,14.43
2019-03-24T01:26:29.044Z,20.70
2019-03-24T01:31:32.564Z,13.53
2019-03-24T01:36:35.844Z,18.27
2019-03-24T01:41:39.125Z,19.53
2019-03-24T01:46:42.401Z,20.53
2019-03-24T01:51:45.684Z,21.87
2019-03-24T01:56:48.966Z,17.27
2019-03-24T02:01:52.495Z,16.23
2019-03-24T02:06:56.024Z,21.83
2019-03-24T02:11:59.620Z,15.20
2019-03-24T02:17:03.141Z,15.07
2019-03-24T02:22:06.423Z,15.10
2019-03-24T02:27:09.964Z,18.40
2019-03-24T02:32:13.244Z,14.10
2019-03-24T02:37:16.765Z,13.13
2019-03-24T02:42:20.570Z,11.50
2019-03-24T02:47:24.062Z,11.63
2019-03-24T02:52:27.356Z,10.60
2019-03-24T02:57:30.640Z,12.17
2019-03-24T03:02:33.921Z,15.33
2019-03-24T03:07:37.203Z,19.50
2019-03-24T03:12:40.499Z,12.43
2019-03-24T03:17:43.858Z,15.37
2019-03-24T03:22:47.413Z,9.70
2019-03-24T03:27:50.711Z,13.73
2019-03-24T03:32:54.240Z,10.40
2019-03-24T03:37:57.765Z,13.50
2019-03-24T03:43:01.027Z,9.03
2019-03-24T03:48:04.545Z,12.73
2019-03-24T03:53:08.068Z,10.37
2019-03-24T03:58:11.354Z,8.70
2019-03-24T04:03:14.635Z,10.17
2019-03-24T04:08:17.910Z,13.23
2019-03-24T04:13:21.201Z,15.77
2019-03-24T04:18:24.468Z,12.43
2019-03-24T04:23:27.987Z,13.57
2019-03-24T04:28:31.504Z,13.07
2019-03-24T04:33:34.792Z,9.30
2019-03-24T04:38:38.074Z,10.20
2019-03-24T04:43:41.352Z,14.43
2019-03-24T04:48:44.629Z,12.60
2019-03-24T04:53:48.139Z,9.30
2019-03-24T04:58:51.418Z,11.63
2019-03-24T05:03:54.719Z,10.33
2019-03-24T05:08:58.266Z,11.37
2019-03-24T05:14:01.550Z,12.07
2019-03-24T05:19:05.071Z,9.80
2019-03-24T05:24:08.604Z,11.50
2019-03-24T05:29:12.145Z,16.93
2019-03-24T05:34:15.666Z,17.17
2019-03-24T05:39:19.202Z,14.43
2019-03-24T05:44:22.731Z,15.27
2019-03-24T05:49:26.270Z,17.77
2019-03-24T05:54:29.570Z,12.23
2019-03-24T05:59:32.858Z,13.40
2019-03-24T06:04:36.136Z,14.07
2019-03-24T06:09:39.422Z,12.47
2019-03-24T06:14:42.939Z,17.03
2019-03-24T06:19:46.221Z,11.07
2019-03-24T06:24:49.508Z,20.07
2019-03-24T06:29:53.032Z,17.77
2019-03-24T06:34:56.325Z,10.83
2019-03-24T06:39:59.601Z,12.43
2019-03-24T06:45:03.665Z,16.57
2019-03-24T06:50:08.047Z,17.47
2019-03-24T06:55:11.748Z,12.57
2019-03-24T07:00:15.549Z,16.17
2019-03-24T07:05:18.832Z,17.60
2019-03-24T07:10:22.371Z,17.03
2019-03-24T07:15:25.652Z,15.27
2019-03-24T07:20:29.178Z,18.40
2019-03-24T07:25:32.723Z,14.63
2019-03-24T07:30:36.269Z,13.93
2019-03-24T07:35:39.925Z,14.30
2019-03-24T07:40:43.422Z,18.53
2019-03-24T07:45:46.964Z,18.90
2019-03-24T07:50:50.265Z,15.97
2019-03-24T07:55:53.546Z,18.67
2019-03-24T08:00:56.843Z,13.47
2019-03-24T08:06:00.385Z,16.37
2019-03-24T08:11:03.914Z,18.53
2019-03-24T08:16:07.451Z,14.17
2019-03-24T08:21:10.740Z,19.87
2019-03-24T08:26:14.262Z,19.50
2019-03-24T08:31:17.551Z,20.40
2019-03-24T08:36:20.886Z,17.50
2019-03-24T08:41:24.175Z,17.80
2019-03-24T08:46:27.461Z,20.87
2019-03-24T08:51:30.976Z,17.43
2019-03-24T08:56:35.189Z,17.30
2019-03-24T09:01:38.737Z,20.80
2019-03-24T09:06:42.111Z,20.50
2019-03-24T09:11:45.732Z,19.83
2019-03-24T09:16:49.315Z,20.03
2019-03-24T09:21:52.640Z,22.37
2019-03-24T09:26:56.241Z,22.57
2019-03-24T09:31:59.746Z,24.43
2019-03-24T09:37:03.329Z,27.63
2019-03-24T09:42:06.864Z,27.27
2019-03-24T09:47:10.213Z,22.77
2019-03-24T09:52:13.759Z,24.73
2019-03-24T09:57:17.089Z,25.00
2019-03-24T10:02:20.643Z,19.97
2019-03-24T10:07:24.164Z,19.73
2019-03-24T10:12:27.699Z,17.00
2019-03-24T10:17:30.979Z,18.03
2019-03-24T10:22:34.272Z,17.47
2019-03-24T10:27:37.801Z,18.23
2019-03-24T10:32:43.329Z,13.10
2019-03-24T10:37:46.856Z,12.30
2019-03-24T10:42:50.388Z,15.73
2019-03-24T10:47:55.436Z,12.13
2019-03-24T10:52:58.735Z,12.27
2019-03-24T10:58:02.618Z,14.30
2019-03-24T11:03:07.906Z,15.27
2019-03-24T11:08:14.786Z,11.10
2019-03-24T11:13:26.763Z,14.27
2019-03-24T11:18:36.613Z,11.20
2019-03-24T11:23:43.616Z,13.33
2019-03-24T11:28:54.650Z,11.77
2019-03-24T11:33:57.201Z,10.97
2019-03-24T11:39:00.730Z,14.20
2019-03-24T11:44:07.242Z,10.97
2019-03-24T11:49:22.191Z,11.07
2019-03-24T11:54:25.440Z,16.27
2019-03-24T11:59:50.676Z,10.83
2019-03-24T12:04:49.433Z,14.57
2019-03-24T12:10:00.502Z,6.77
2019-03-24T12:15:05.332Z,12.67
2019-03-24T12:20:11.178Z,9.83
2019-03-24T12:25:18.045Z,11.83
2019-03-24T12:30:22.235Z,9.70
2019-03-24T12:35:25.529Z,11.57
2019-03-24T12:40:28.823Z,11.63
2019-03-24T12:45:33.646Z,10.17
2019-03-24T12:50:37.128Z,11.33
2019-03-24T12:55:40.649Z,6.37
2019-03-24T13:00:44.187Z,6.00
2019-03-24T13:05:47.705Z,9.17
2019-03-24T13:10:50.994Z,5.47
2019-03-24T13:15:54.274Z,5.73
2019-03-24T13:20:57.597Z,5.77
2019-03-24T13:26:00.908Z,5.10
2019-03-24T13:31:04.429Z,21.43
2019-03-24T13:36:12.607Z,6.63
2019-03-24T13:41:16.217Z,6.43
2019-03-24T13:46:22.832Z,3.40
2019-03-24T13:51:26.124Z,3.33
2019-03-24T13:56:29.398Z,2.90
2019-03-24T14:01:32.700Z,2.60
2019-03-24T14:06:35.971Z,3.60
2019-03-24T14:11:39.260Z,2.37
2019-03-24T14:16:42.539Z,3.40
2019-03-24T14:21:46.074Z,5.40
2019-03-24T14:26:49.357Z,3.47
2019-03-24T14:31:52.647Z,3.43
2019-03-24T14:36:56.201Z,2.20
2019-03-24T14:41:59.742Z,2.30
2019-03-24T14:47:03.309Z,2.77
2019-03-24T14:52:06.595Z,3.90
2019-03-24T14:57:09.985Z,3.77
2019-03-24T15:02:13.266Z,2.00
2019-03-24T15:07:16.554Z,2.40
2019-03-24T15:12:19.858Z,1.90
2019-03-24T15:17:23.152Z,1.90
2019-03-24T15:22:26.675Z,3.30
2019-03-24T15:27:30.238Z,1.90
2019-03-24T15:32:33.525Z,1.90
2019-03-24T15:37:37.076Z,4.93
2019-03-24T15:42:40.485Z,4.40
2019-03-24T15:47:44.135Z,4.73
2019-03-24T15:52:47.827Z,3.27
2019-03-24T15:57:51.131Z,4.77
2019-03-24T16:02:56.059Z,7.20
2019-03-24T16:07:59.597Z,6.27
2019-03-24T16:13:03.128Z,7.10
2019-03-24T16:18:06.488Z,5.53
2019-03-24T16:23:10.027Z,7.93
2019-03-24T16:28:13.571Z,6.83
2019-03-24T16:33:16.920Z,8.03
2019-03-24T16:38:20.451Z,5.13
2019-03-24T16:43:23.731Z,5.60
2019-03-24T16:48:36.447Z,5.50
2019-03-24T16:53:32.532Z,6.83
2019-03-24T16:58:36.099Z,5.07
2019-03-24T17:03:40.236Z,4.07
2019-03-24T17:08:43.758Z,3.80
2019-03-24T17:13:47.040Z,5.43
2019-03-24T17:18:50.582Z,5.83
2019-03-24T17:23:54.117Z,4.03
2019-03-24T17:28:57.400Z,4.40
2019-03-24T17:34:00.694Z,6.40
2019-03-24T17:39:06.549Z,4.63
2019-03-24T17:44:09.870Z,3.07
2019-03-24T17:49:13.423Z,5.87
2019-03-24T17:54:16.715Z,5.40
2019-03-24T17:59:20.239Z,3.17
2019-03-24T18:04:25.058Z,5.57
2019-03-24T18:09:28.617Z,2.40
2019-03-24T18:14:31.901Z,4.63
2019-03-24T18:19:35.436Z,5.63
2019-03-24T18:24:38.771Z,7.53
2019-03-24T18:29:42.051Z,8.67
2019-03-24T18:34:45.327Z,6.43
2019-03-24T18:39:48.844Z,3.73
2019-03-24T18:44:52.123Z,7.67
2019-03-24T18:49:56.927Z,7.70
2019-03-24T18:55:00.474Z,7.87
2019-03-24T19:00:09.269Z,5.57
2019-03-24T19:05:13.305Z,11.17
2019-03-24T19:10:17.553Z,9.70
2019-03-24T19:15:21.811Z,7.20
2019-03-24T19:20:25.085Z,8.93
2019-03-24T19:25:29.997Z,7.17
2019-03-24T19:30:36.339Z,6.03
2019-03-24T19:35:40.659Z,9.33
2019-03-24T19:40:44.207Z,6.20
2019-03-24T19:45:52.894Z,7.63
2019-03-24T19:50:58.629Z,6.90
2019-03-24T19:56:04.970Z,6.53
2019-03-24T20:01:10.126Z,5.37
2019-03-24T20:06:13.608Z,9.23
2019-03-24T20:11:17.131Z,4.57
2019-03-24T20:16:21.659Z,5.63
2019-03-24T20:21:29.918Z,4.20
2019-03-24T20:26:39.559Z,6.53
2019-03-24T20:31:42.834Z,8.87
2019-03-24T20:36:49.449Z,9.07
2019-03-24T20:41:52.856Z,4.77
2019-03-24T20:46:57.848Z,4.50
2019-03-24T20:52:01.594Z,6.63
2019-03-24T20:57:14.592Z,5.73
2019-03-24T21:02:20.340Z,6.50
2019-03-24T21:07:25.138Z,6.87
2019-03-24T21:12:32.247Z,6.40
2019-03-24T21:17:40.574Z,7.77
2019-03-24T21:22:57.574Z,6.17
2019-03-24T21:27:59.933Z,6.47
2019-03-24T21:33:07.856Z,7.63
2019-03-24T21:38:11.383Z,8.27
2019-03-24T21:43:15.776Z,6.67
2019-03-24T21:48:20.691Z,9.43
2019-03-24T21:53:24.345Z,4.60
2019-03-24T21:58:35.470Z,6.93
2019-03-24T22:03:47.972Z,9.20
2019-03-24T22:08:53.805Z,7.73
2019-03-24T22:14:00.726Z,9.27
2019-03-24T22:19:05.823Z,5.90
2019-03-24T22:24:13.360Z,6.20
2019-03-24T22:29:16.588Z,6.63
2019-03-24T22:34:21.207Z,6.07
2019-03-24T22:39:29.534Z,4.40
2019-03-24T22:44:33.094Z,7.60
2019-03-24T22:49:36.633Z,7.43
2019-03-24T22:54:39.936Z,10.03
2019-03-24T22:59:43.242Z,7.60
2019-03-24T23:04:54.283Z,10.17
2019-03-24T23:09:59.929Z,9.77
2019-03-24T23:15:04.330Z,7.63
2019-03-24T23:20:08.099Z,8.30
2019-03-24T23:25:11.460Z,6.13
2019-03-24T23:30:15.211Z,5.57
2019-03-24T23:35:18.762Z,9.93
2019-03-24T23:40:22.024Z,9.13
2019-03-24T23:45:25.383Z,7.43
2019-03-24T23:50:30.212Z,6.73
2019-03-24T23:55:33.752Z,8.53
